Time;durP1;ratioP1;P1;durP2;ratioP2;P2;SDS_P1;SDS_P2;PMS_P1;PMS_P2;Temp;Humidity;BMP_temperature;BMP_pressure;BME280_temperature;BME280_humidity;BME280_pressure;Samples;Min_cycle;Max_cycle;Signal;HPM_P1;HPM_P2
2021/07/19 00:00:51;;;;;;;14.60;10.73;;;;;;;;;;4946383;29;20214;-88
2021/07/19 00:03:55;;;;;;;15.63;10.07;;;;;;;;;;4943372;28;20206;-88
2021/07/19 00:06:59;;;;;;;15.97;10.23;;;;;;;;;;4943898;28;20550;-88
2021/07/19 00:10:05;;;;;;;12.03;9.70;;;;;;;;;;4945780;29;20234;-88
2021/07/19 00:13:09;;;;;;;12.93;10.10;;;;;;;;;;4974606;28;20234;-88
2021/07/19 00:16:13;;;;;;;17.27;9.53;;;;;;;;;;4943466;28;20194;-88
2021/07/19 00:19:17;;;;;;;13.17;9.97;;;;;;;;;;4943309;28;20178;-88
2021/07/19 00:22:22;;;;;;;12.70;9.57;;;;;;;;;;4976253;28;20215;-88
2021/07/19 00:25:26;;;;;;;11.13;8.83;;;;;;;;;;4953613;28;20187;-88
2021/07/19 00:28:30;;;;;;;10.93;8.70;;;;;;;;;;4953889;28;20179;-88
2021/07/19 00:31:34;;;;;;;11.90;9.03;;;;;;;;;;4953460;28;20226;-88
2021/07/19 00:34:38;;;;;;;15.27;9.80;;;;;;;;;;4953585;28;20194;-88
2021/07/19 00:37:43;;;;;;;11.23;9.20;;;;;;;;;;4942947;28;20183;-88
2021/07/19 00:40:47;;;;;;;12.90;9.33;;;;;;;;;;4943151;28;20518;-88
2021/07/19 00:43:53;;;;;;;12.97;9.30;;;;;;;;;;4943386;28;20638;-88
2021/07/19 00:46:58;;;;;;;10.50;8.57;;;;;;;;;;4942880;28;20511;-88
2021/07/19 00:50:03;;;;;;;11.43;8.60;;;;;;;;;;4942408;28;20681;-87
2021/07/19 00:53:09;;;;;;;10.33;8.60;;;;;;;;;;4953271;28;20226;-88
2021/07/19 00:56:17;;;;;;;14.90;9.07;;;;;;;;;;4942750;28;20187;-88
2021/07/19 00:59:23;;;;;;;12.77;9.00;;;;;;;;;;4953746;28;20523;-88
2021/07/19 01:02:29;;;;;;;11.33;8.97;;;;;;;;;;4942483;28;20222;-88
2021/07/19 01:05:36;;;;;;;11.57;9.10;;;;;;;;;;4942083;28;20186;-88
2021/07/19 01:08:43;;;;;;;12.30;8.50;;;;;;;;;;4934127;29;20208;-88
2021/07/19 01:11:48;;;;;;;10.77;8.50;;;;;;;;;;4944624;28;20227;-88
2021/07/19 01:14:52;;;;;;;12.73;7.83;;;;;;;;;;4923316;29;20211;-88
2021/07/19 01:17:57;;;;;;;13.77;8.70;;;;;;;;;;4974510;28;20547;-88
2021/07/19 01:21:04;;;;;;;11.27;8.50;;;;;;;;;;4953083;28;20183;-88
2021/07/19 01:24:24;;;;;;;12.53;8.60;;;;;;;;;;4953227;28;20670;-88
2021/07/19 01:27:36;;;;;;;11.00;7.73;;;;;;;;;;4952933;28;20194;-88
2021/07/19 01:30:43;;;;;;;11.03;8.40;;;;;;;;;;4941859;28;20222;-88
2021/07/19 01:33:51;;;;;;;12.37;7.93;;;;;;;;;;4952988;28;20634;-88
2021/07/19 01:36:59;;;;;;;10.23;7.97;;;;;;;;;;4942150;28;20630;-88
2021/07/19 01:40:08;;;;;;;13.80;8.03;;;;;;;;;;4942270;28;20195;-88
2021/07/19 01:43:13;;;;;;;10.90;7.73;;;;;;;;;;4952537;28;20677;-88
2021/07/19 01:46:17;;;;;;;8.57;7.27;;;;;;;;;;4944207;29;20183;-88
2021/07/19 01:49:23;;;;;;;10.53;7.83;;;;;;;;;;4948479;28;20195;-88
2021/07/19 01:52:29;;;;;;;11.50;7.13;;;;;;;;;;4941432;28;20578;-88
2021/07/19 01:55:36;;;;;;;15.33;7.73;;;;;;;;;;4933181;29;20536;-87
2021/07/19 01:58:43;;;;;;;13.87;8.17;;;;;;;;;;4973678;28;20194;-88
2021/07/19 02:01:54;;;;;;;10.83;8.13;;;;;;;;;;4933810;28;20682;-88
2021/07/19 02:04:59;;;;;;;11.50;7.53;;;;;;;;;;4958497;28;20523;-88
2021/07/19 02:08:05;;;;;;;11.83;8.10;;;;;;;;;;4963061;28;20190;-88
2021/07/19 02:11:23;;;;;;;11.97;8.00;;;;;;;;;;4942071;28;20207;-88
2021/07/19 02:14:28;;;;;;;10.33;8.10;;;;;;;;;;4941580;28;20199;-88
2021/07/19 02:17:46;;;;;;;9.57;8.20;;;;;;;;;;4953756;28;20641;-88
2021/07/19 02:20:54;;;;;;;12.33;8.87;;;;;;;;;;4941214;28;20183;-88
2021/07/19 02:24:02;;;;;;;12.33;8.53;;;;;;;;;;4941489;28;20642;-88
2021/07/19 02:27:15;;;;;;;11.03;8.07;;;;;;;;;;4944052;29;20536;-88
2021/07/19 02:30:22;;;;;;;11.27;8.57;;;;;;;;;;4951907;28;20218;-88
2021/07/19 02:33:28;;;;;;;11.50;8.93;;;;;;;;;;4951719;28;20661;-87
2021/07/19 02:36:32;;;;;;;15.87;8.17;;;;;;;;;;4941188;28;20630;-88
2021/07/19 02:39:39;;;;;;;14.17;8.00;;;;;;;;;;4941193;28;20183;-88
2021/07/19 02:42:52;;;;;;;12.13;7.93;;;;;;;;;;4941525;28;20226;-88
2021/07/19 02:45:57;;;;;;;8.47;7.30;;;;;;;;;;4951756;28;20662;-88
2021/07/19 02:49:08;;;;;;;11.43;7.37;;;;;;;;;;4955733;28;20523;-88
2021/07/19 02:52:13;;;;;;;20.23;8.10;;;;;;;;;;4944245;28;20222;-88
2021/07/19 02:55:18;;;;;;;9.83;7.00;;;;;;;;;;4939926;28;20191;-88
2021/07/19 02:58:25;;;;;;;11.00;7.97;;;;;;;;;;4955961;28;20183;-88
2021/07/19 03:01:32;;;;;;;10.47;8.40;;;;;;;;;;4966215;28;20219;-88
2021/07/19 03:04:38;;;;;;;10.40;8.30;;;;;;;;;;4955217;28;20203;-88
2021/07/19 03:07:49;;;;;;;12.80;8.47;;;;;;;;;;4944570;28;20202;-88
2021/07/19 03:10:55;;;;;;;10.47;8.00;;;;;;;;;;4935897;29;20215;-88
2021/07/19 03:14:13;;;;;;;11.63;8.23;;;;;;;;;;4947354;29;20195;-88
2021/07/19 03:17:18;;;;;;;9.97;7.60;;;;;;;;;;4946967;29;20187;-88
2021/07/19 03:20:24;;;;;;;9.47;7.37;;;;;;;;;;4946953;29;20192;-88
2021/07/19 03:23:30;;;;;;;13.83;7.77;;;;;;;;;;4947461;29;20192;-88
2021/07/19 03:26:40;;;;;;;9.40;7.63;;;;;;;;;;4958007;29;20183;-88
2021/07/19 03:29:46;;;;;;;10.27;7.57;;;;;;;;;;4925149;29;20179;-88
2021/07/19 03:33:00;;;;;;;12.10;7.30;;;;;;;;;;4954338;28;20231;-88
2021/07/19 03:36:05;;;;;;;10.47;6.60;;;;;;;;;;4943539;28;20191;-88
2021/07/19 03:39:12;;;;;;;9.50;7.50;;;;;;;;;;4954831;28;20199;-88
2021/07/19 03:42:37;;;;;;;10.63;7.90;;;;;;;;;;4946449;28;20222;-88
2021/07/19 03:45:46;;;;;;;10.43;7.93;;;;;;;;;;4966144;28;20183;-88
2021/07/19 03:48:51;;;;;;;9.87;7.30;;;;;;;;;;4924829;29;20172;-87
2021/07/19 03:51:55;;;;;;;9.47;8.20;;;;;;;;;;4935215;28;20223;-88
2021/07/19 03:55:00;;;;;;;12.13;8.47;;;;;;;;;;4946171;29;20211;-88
2021/07/19 03:58:10;;;;;;;14.50;8.33;;;;;;;;;;4941307;28;20211;-87
2021/07/19 04:01:16;;;;;;;10.07;7.67;;;;;;;;;;4976667;28;20199;-88
2021/07/19 04:04:38;;;;;;;13.17;8.77;;;;;;;;;;4943688;28;20199;-87
2021/07/19 04:07:45;;;;;;;9.70;7.40;;;;;;;;;;4954413;28;20195;-88
2021/07/19 04:10:51;;;;;;;18.60;9.00;;;;;;;;;;4965165;28;20202;-88
2021/07/19 04:13:56;;;;;;;11.00;7.77;;;;;;;;;;4935184;29;20187;-88
2021/07/19 04:17:04;;;;;;;9.43;8.33;;;;;;;;;;4935110;29;20188;-88
2021/07/19 04:20:10;;;;;;;16.43;9.67;;;;;;;;;;4964908;28;20650;-88
2021/07/19 04:23:16;;;;;;;10.37;8.77;;;;;;;;;;4954290;28;20698;-88
2021/07/19 04:26:22;;;;;;;9.80;8.43;;;;;;;;;;4953298;29;20199;-88
2021/07/19 04:29:33;;;;;;;12.00;8.43;;;;;;;;;;4934963;29;20188;-88
2021/07/19 04:32:44;;;;;;;12.87;8.33;;;;;;;;;;4923700;29;20231;-87
2021/07/19 04:35:49;;;;;;;12.73;8.27;;;;;;;;;;4990757;23;20233;-85
2021/07/19 04:38:57;;;;;;;12.83;8.07;;;;;;;;;;4984714;28;20198;-84
2021/07/19 04:42:04;;;;;;;10.80;8.40;;;;;;;;;;4973804;28;20174;-84
2021/07/19 04:45:12;;;;;;;11.37;8.47;;;;;;;;;;4987093;28;20215;-84
2021/07/19 04:48:17;;;;;;;11.87;9.47;;;;;;;;;;4967922;28;20183;-84
2021/07/19 04:51:21;;;;;;;31.67;9.77;;;;;;;;;;4978271;28;20202;-85
2021/07/19 04:54:32;;;;;;;9.87;7.93;;;;;;;;;;4966350;28;20186;-81
2021/07/19 04:57:38;;;;;;;9.43;7.50;;;;;;;;;;4966078;28;20202;-82
2021/07/19 05:00:47;;;;;;;11.13;7.50;;;;;;;;;;4977689;28;20638;-84
2021/07/19 05:03:54;;;;;;;9.40;7.10;;;;;;;;;;4966973;28;20203;-82
2021/07/19 05:06:58;;;;;;;12.33;7.60;;;;;;;;;;4996304;28;20526;-82
2021/07/19 05:10:05;;;;;;;12.17;7.93;;;;;;;;;;4996156;28;20182;-82
2021/07/19 05:13:14;;;;;;;9.83;7.50;;;;;;;;;;4991607;28;20190;-82
2021/07/19 05:16:18;;;;;;;9.03;7.47;;;;;;;;;;4992706;28;20218;-82
2021/07/19 05:19:22;;;;;;;13.80;7.50;;;;;;;;;;4975227;28;20206;-82
2021/07/19 05:22:26;;;;;;;11.90;7.57;;;;;;;;;;4965988;28;20515;-83
2021/07/19 05:25:32;;;;;;;11.07;7.37;;;;;;;;;;4996602;28;20225;-82
2021/07/19 05:28:36;;;;;;;10.53;7.30;;;;;;;;;;4985383;28;20186;-82
2021/07/19 05:31:40;;;;;;;9.17;6.93;;;;;;;;;;4996358;28;20343;-82
2021/07/19 05:34:44;;;;;;;13.00;7.87;;;;;;;;;;4995853;28;20186;-82
2021/07/19 05:37:49;;;;;;;9.93;7.30;;;;;;;;;;4985885;28;20182;-83
2021/07/19 05:40:53;;;;;;;8.33;7.07;;;;;;;;;;4996268;28;20202;-82
2021/07/19 05:43:57;;;;;;;11.60;7.47;;;;;;;;;;4996354;28;20198;-82
2021/07/19 05:47:03;;;;;;;9.60;7.77;;;;;;;;;;4995321;28;20174;-83
2021/07/19 05:50:09;;;;;;;11.67;7.23;;;;;;;;;;5005701;28;20189;-83
2021/07/19 05:53:13;;;;;;;16.23;7.77;;;;;;;;;;4995411;28;20206;-83
2021/07/19 05:56:17;;;;;;;11.40;8.37;;;;;;;;;;4972782;28;20226;-83
2021/07/19 05:59:21;;;;;;;10.93;7.07;;;;;;;;;;5005572;28;20194;-83
2021/07/19 06:02:27;;;;;;;12.53;7.77;;;;;;;;;;4994705;28;20190;-82
2021/07/19 06:05:31;;;;;;;15.50;7.47;;;;;;;;;;4962035;28;20694;-83
2021/07/19 06:08:35;;;;;;;12.77;7.60;;;;;;;;;;4993281;28;20190;-83
2021/07/19 06:11:40;;;;;;;8.87;7.33;;;;;;;;;;4980805;28;20570;-83
2021/07/19 06:14:44;;;;;;;14.03;8.10;;;;;;;;;;4967592;28;20192;-82
2021/07/19 06:17:48;;;;;;;15.23;9.03;;;;;;;;;;4982952;28;20653;-82
2021/07/19 06:20:52;;;;;;;9.67;7.27;;;;;;;;;;4983106;28;20256;-82
2021/07/19 06:23:57;;;;;;;11.57;7.40;;;;;;;;;;4990193;28;20198;-82
2021/07/19 06:27:01;;;;;;;9.17;6.90;;;;;;;;;;4995367;28;20174;-82
2021/07/19 06:30:07;;;;;;;9.60;7.83;;;;;;;;;;4967158;28;20198;-82
2021/07/19 06:33:11;;;;;;;10.93;7.60;;;;;;;;;;4978140;28;20226;-82
2021/07/19 06:36:15;;;;;;;9.87;7.53;;;;;;;;;;4975061;28;20230;-82
2021/07/19 06:39:19;;;;;;;15.23;7.27;;;;;;;;;;4975845;28;20633;-83
2021/07/19 06:42:24;;;;;;;11.13;7.30;;;;;;;;;;4974483;28;20179;-83
2021/07/19 06:45:28;;;;;;;9.47;7.67;;;;;;;;;;4975645;28;20218;-83
2021/07/19 06:48:33;;;;;;;10.90;7.17;;;;;;;;;;4964725;28;20186;-83
2021/07/19 06:51:37;;;;;;;29.20;7.73;;;;;;;;;;4974485;28;20593;-84
2021/07/19 06:54:41;;;;;;;11.23;7.30;;;;;;;;;;4954684;28;20195;-84
2021/07/19 06:57:46;;;;;;;12.33;7.63;;;;;;;;;;4944600;29;20188;-84
2021/07/19 07:00:50;;;;;;;11.33;6.80;;;;;;;;;;4959934;28;20194;-84
2021/07/19 07:03:54;;;;;;;18.57;7.63;;;;;;;;;;4993619;28;20178;-83
2021/07/19 07:06:59;;;;;;;12.93;6.97;;;;;;;;;;4971485;28;20633;-84
2021/07/19 07:10:05;;;;;;;10.43;7.30;;;;;;;;;;4971027;28;20182;-83
2021/07/19 07:13:09;;;;;;;12.13;7.00;;;;;;;;;;4982137;28;20210;-84
2021/07/19 07:16:13;;;;;;;11.97;6.57;;;;;;;;;;4974267;28;20219;-84
2021/07/19 07:19:17;;;;;;;10.33;7.23;;;;;;;;;;4982307;28;20190;-83
2021/07/19 07:22:22;;;;;;;10.93;7.03;;;;;;;;;;4977198;28;20196;-83
2021/07/19 07:25:27;;;;;;;10.53;6.60;;;;;;;;;;4965894;28;20219;-84
2021/07/19 07:28:31;;;;;;;9.43;6.23;;;;;;;;;;4954168;29;20203;-84
2021/07/19 07:31:35;;;;;;;11.10;6.53;;;;;;;;;;4944261;29;20180;-84
2021/07/19 07:34:40;;;;;;;29.40;7.37;;;;;;;;;;4947379;28;20203;-84
2021/07/19 07:37:44;;;;;;;11.07;5.70;;;;;;;;;;4946829;29;20199;-84
2021/07/19 07:40:49;;;;;;;6.23;5.20;;;;;;;;;;4946907;29;20183;-84
2021/07/19 07:43:53;;;;;;;8.40;5.77;;;;;;;;;;4958402;29;20184;-84
2021/07/19 07:46:57;;;;;;;6.40;5.50;;;;;;;;;;4946974;29;20509;-84
2021/07/19 07:50:03;;;;;;;5.70;4.50;;;;;;;;;;4946874;29;20197;-84
2021/07/19 07:53:07;;;;;;;5.37;3.80;;;;;;;;;;4946400;29;20225;-84
2021/07/19 07:56:13;;;;;;;6.33;4.33;;;;;;;;;;4957718;28;20215;-84
2021/07/19 07:59:17;;;;;;;5.13;4.43;;;;;;;;;;4946476;29;20190;-84
2021/07/19 08:02:21;;;;;;;24.73;5.80;;;;;;;;;;4968797;28;20190;-85
2021/07/19 08:05:25;;;;;;;10.63;4.40;;;;;;;;;;4945874;28;20219;-84
2021/07/19 08:08:30;;;;;;;10.75;3.92;;;;;;;;;;4957241;29;20689;-84
2021/07/19 08:11:34;;;;;;;12.63;4.25;;;;;;;;;;4946059;29;20191;-85
2021/07/19 08:14:38;;;;;;;4.90;4.20;;;;;;;;;;4946139;28;20524;-85
2021/07/19 08:17:43;;;;;;;7.55;4.07;;;;;;;;;;4946236;29;20190;-85
2021/07/19 08:20:47;;;;;;;6.35;3.58;;;;;;;;;;4957780;28;20195;-85
2021/07/19 08:23:51;;;;;;;5.72;3.10;;;;;;;;;;4945859;29;20194;-85
2021/07/19 08:26:55;;;;;;;5.50;2.88;;;;;;;;;;4968255;28;20187;-85
2021/07/19 08:29:59;;;;;;;4.07;2.58;;;;;;;;;;4977927;28;20545;-85
2021/07/19 08:33:03;;;;;;;7.18;3.05;;;;;;;;;;4968843;28;20232;-85
2021/07/19 08:36:07;;;;;;;3.35;2.80;;;;;;;;;;4945600;29;20231;-85
2021/07/19 08:39:11;;;;;;;12.98;3.30;;;;;;;;;;4967837;28;20638;-84
2021/07/19 08:42:16;;;;;;;6.10;3.00;;;;;;;;;;4945644;29;20207;-84
2021/07/19 08:45:20;;;;;;;5.50;3.35;;;;;;;;;;4955849;28;20558;-85
2021/07/19 08:48:24;;;;;;;4.95;3.40;;;;;;;;;;4945815;29;20192;-85
2021/07/19 08:51:29;;;;;;;6.78;3.22;;;;;;;;;;4956698;29;20519;-85
2021/07/19 08:54:37;;;;;;;5.93;3.25;;;;;;;;;;4967739;28;20176;-85
2021/07/19 08:57:45;;;;;;;4.15;2.95;;;;;;;;;;4956583;29;20187;-85
2021/07/19 09:00:52;;;;;;;5.28;3.22;;;;;;;;;;4967137;28;20203;-85
2021/07/19 09:03:57;;;;;;;6.07;3.00;;;;;;;;;;4934364;29;20210;-85
2021/07/19 09:07:03;;;;;;;5.25;2.83;;;;;;;;;;4945266;29;20191;-85
2021/07/19 09:10:09;;;;;;;9.65;3.17;;;;;;;;;;4956359;29;20186;-85
2021/07/19 09:13:18;;;;;;;3.47;2.60;;;;;;;;;;4934244;29;20214;-85
2021/07/19 09:16:21;;;;;;;5.03;3.08;;;;;;;;;;4955864;28;20222;-85
2021/07/19 09:19:28;;;;;;;6.97;3.88;;;;;;;;;;4944848;29;20179;-85
2021/07/19 09:22:33;;;;;;;7.28;3.38;;;;;;;;;;4956038;28;20184;-85
2021/07/19 09:25:38;;;;;;;14.48;3.88;;;;;;;;;;4944491;29;20227;-85
2021/07/19 09:28:42;;;;;;;3.90;2.97;;;;;;;;;;4980092;28;20577;-85
2021/07/19 09:31:53;;;;;;;3.88;2.78;;;;;;;;;;4944996;29;20192;-85
2021/07/19 09:35:08;;;;;;;4.70;3.17;;;;;;;;;;4960267;28;20239;-85
2021/07/19 09:38:15;;;;;;;17.63;3.55;;;;;;;;;;4963989;28;20195;-85
2021/07/19 09:41:23;;;;;;;9.35;2.97;;;;;;;;;;4944979;29;20183;-85
2021/07/19 09:44:27;;;;;;;4.72;3.15;;;;;;;;;;4944512;29;20188;-85
2021/07/19 09:47:37;;;;;;;34.10;4.95;;;;;;;;;;4955656;29;20184;-85
2021/07/19 09:50:44;;;;;;;11.77;3.58;;;;;;;;;;4955409;29;20188;-85
2021/07/19 09:53:48;;;;;;;8.27;3.13;;;;;;;;;;4966156;28;20227;-85
2021/07/19 09:57:00;;;;;;;7.32;2.97;;;;;;;;;;4954059;28;20219;-85
2021/07/19 10:00:04;;;;;;;19.40;3.25;;;;;;;;;;4933594;29;20192;-85
2021/07/19 10:03:16;;;;;;;10.73;3.00;;;;;;;;;;4966350;28;20188;-85
2021/07/19 10:06:28;;;;;;;6.72;3.28;;;;;;;;;;4933352;29;20690;-85
2021/07/19 10:09:36;;;;;;;10.63;3.58;;;;;;;;;;4961893;28;20211;-85
2021/07/19 10:12:42;;;;;;;7.53;2.75;;;;;;;;;;4974196;28;20226;-85
2021/07/19 10:15:47;;;;;;;6.25;2.65;;;;;;;;;;4952268;28;20227;-85
2021/07/19 10:18:53;;;;;;;7.95;2.65;;;;;;;;;;4952260;28;20179;-85
2021/07/19 10:21:57;;;;;;;5.28;2.80;;;;;;;;;;4974384;28;20183;-85
2021/07/19 10:25:01;;;;;;;5.80;2.83;;;;;;;;;;4963393;28;20214;-85
2021/07/19 10:28:05;;;;;;;6.63;3.03;;;;;;;;;;4952046;28;20183;-85
2021/07/19 10:31:12;;;;;;;7.97;2.88;;;;;;;;;;4962945;28;20203;-85
2021/07/19 10:34:18;;;;;;;6.72;2.53;;;;;;;;;;4952058;28;20681;-85
2021/07/19 10:37:32;;;;;;;5.75;3.05;;;;;;;;;;5033746;23;20228;-88
2021/07/19 10:40:38;;;;;;;7.97;3.42;;;;;;;;;;5021501;28;20177;-88
2021/07/19 10:43:42;;;;;;;5.93;3.00;;;;;;;;;;5007723;28;20259;-88
2021/07/19 10:46:46;;;;;;;8.15;2.72;;;;;;;;;;5031971;28;20224;-88
2021/07/19 10:50:02;;;;;;;5.18;3.10;;;;;;;;;;5033029;28;20185;-88
2021/07/19 10:53:21;;;;;;;6.35;3.10;;;;;;;;;;5021037;28;20553;-88
2021/07/19 10:56:28;;;;;;;74.03;7.07;;;;;;;;;;5010313;28;20221;-89
2021/07/19 10:59:35;;;;;;;6.60;2.85;;;;;;;;;;5021541;28;20182;-88
2021/07/19 11:02:39;;;;;;;5.22;2.85;;;;;;;;;;5010042;28;20182;-89
2021/07/19 11:05:49;;;;;;;4.93;2.65;;;;;;;;;;5010128;28;20173;-88
2021/07/19 11:08:54;;;;;;;12.30;3.47;;;;;;;;;;5012776;28;20182;-88
2021/07/19 11:12:11;;;;;;;7.47;2.90;;;;;;;;;;5013342;28;20185;-89
2021/07/19 11:15:15;;;;;;;10.90;3.42;;;;;;;;;;5016609;28;20660;-88
2021/07/19 11:18:23;;;;;;;7.68;2.70;;;;;;;;;;5005202;28;20186;-88
2021/07/19 11:21:27;;;;;;;23.35;3.85;;;;;;;;;;5005158;28;20186;-88
2021/07/19 11:24:39;;;;;;;6.15;3.10;;;;;;;;;;5005228;28;20174;-86
2021/07/19 11:27:45;;;;;;;11.60;3.20;;;;;;;;;;5003329;28;20222;-88
2021/07/19 11:31:28;;;;;;;17.00;3.88;;;;;;;;;;5005006;28;20551;-88
2021/07/19 11:34:34;;;;;;;7.70;2.95;;;;;;;;;;4950307;29;20572;-88
2021/07/19 11:37:45;;;;;;;8.10;3.30;;;;;;;;;;4945184;29;20698;-88
2021/07/19 11:40:49;;;;;;;5.97;2.95;;;;;;;;;;5035562;28;20530;-88
2021/07/19 11:43:55;;;;;;;9.00;2.80;;;;;;;;;;5024158;28;20518;-88
2021/07/19 11:47:03;;;;;;;9.27;2.85;;;;;;;;;;5036354;28;20690;-89
2021/07/19 11:50:09;;;;;;;9.13;3.03;;;;;;;;;;5024336;28;20181;-89
2021/07/19 11:53:13;;;;;;;9.10;3.25;;;;;;;;;;5023902;28;20220;-89
2021/07/19 11:56:19;;;;;;;4.43;2.65;;;;;;;;;;5024346;28;20224;-88
2021/07/19 11:59:25;;;;;;;5.22;3.00;;;;;;;;;;5046905;28;20196;-88
2021/07/19 12:02:29;;;;;;;9.38;3.05;;;;;;;;;;5023901;28;20177;-88
2021/07/19 12:05:34;;;;;;;9.60;3.25;;;;;;;;;;5024036;28;20178;-88
2021/07/19 12:08:38;;;;;;;7.60;2.92;;;;;;;;;;5035389;28;20177;-89
2021/07/19 12:11:51;;;;;;;6.50;2.78;;;;;;;;;;5035544;28;20176;-88
2021/07/19 12:14:57;;;;;;;5.38;2.60;;;;;;;;;;5023238;28;20213;-89
2021/07/19 12:18:01;;;;;;;6.05;3.05;;;;;;;;;;5023579;28;20177;-89
2021/07/19 12:21:08;;;;;;;5.13;2.67;;;;;;;;;;5011488;28;20178;-88
2021/07/19 12:24:14;;;;;;;4.63;2.80;;;;;;;;;;5003785;28;20511;-88
2021/07/19 12:27:18;;;;;;;6.30;3.05;;;;;;;;;;5014970;28;20214;-88
2021/07/19 12:30:27;;;;;;;6.80;2.78;;;;;;;;;;4992935;28;20186;-88
2021/07/19 12:33:31;;;;;;;5.55;2.92;;;;;;;;;;4992525;28;20214;-88
2021/07/19 12:36:36;;;;;;;7.45;3.05;;;;;;;;;;4997681;28;20220;-88
2021/07/19 12:39:50;;;;;;;7.65;3.33;;;;;;;;;;5023791;28;20531;-89
2021/07/19 12:42:57;;;;;;;7.38;3.35;;;;;;;;;;5023499;28;20181;-89
2021/07/19 12:46:02;;;;;;;7.78;2.97;;;;;;;;;;5023008;28;20699;-88
2021/07/19 12:49:06;;;;;;;8.52;3.10;;;;;;;;;;5023449;28;20196;-88
2021/07/19 12:52:12;;;;;;;5.70;3.05;;;;;;;;;;5034803;28;20181;-88
2021/07/19 12:55:25;;;;;;;5.47;3.45;;;;;;;;;;5011776;28;20206;-88
2021/07/19 12:58:29;;;;;;;5.20;3.33;;;;;;;;;;5023335;28;20181;-88
2021/07/19 13:01:36;;;;;;;6.60;3.33;;;;;;;;;;5023199;28;20185;-88
2021/07/19 13:04:40;;;;;;;6.15;2.75;;;;;;;;;;5022956;28;20181;-88
2021/07/19 13:07:44;;;;;;;30.08;5.10;;;;;;;;;;5011815;28;20553;-88
2021/07/19 13:10:48;;;;;;;7.57;3.10;;;;;;;;;;5022863;28;20189;-88
2021/07/19 13:13:52;;;;;;;6.15;3.20;;;;;;;;;;5022695;28;20663;-88
2021/07/19 13:16:59;;;;;;;7.97;3.42;;;;;;;;;;5022787;28;20224;-88
2021/07/19 13:20:08;;;;;;;12.45;3.70;;;;;;;;;;5022681;28;20181;-88
2021/07/19 13:23:18;;;;;;;3.65;3.05;;;;;;;;;;5023152;28;20193;-88
2021/07/19 13:26:28;;;;;;;5.40;3.33;;;;;;;;;;5022555;28;20208;-88
2021/07/19 13:29:32;;;;;;;6.85;3.15;;;;;;;;;;5022369;28;20180;-88
2021/07/19 13:32:36;;;;;;;3.88;3.30;;;;;;;;;;5011059;28;20181;-88
2021/07/19 13:35:43;;;;;;;11.48;3.78;;;;;;;;;;5021806;28;20193;-88
2021/07/19 13:38:48;;;;;;;9.52;3.50;;;;;;;;;;5022630;28;20221;-88
2021/07/19 13:42:10;;;;;;;14.48;3.33;;;;;;;;;;5022239;28;20185;-88
2021/07/19 13:45:23;;;;;;;14.15;3.53;;;;;;;;;;5022319;28;20177;-89
2021/07/19 13:48:27;;;;;;;7.68;3.25;;;;;;;;;;5022278;28;20197;-87
2021/07/19 13:51:32;;;;;;;14.57;4.10;;;;;;;;;;5011397;28;20195;-87
2021/07/19 13:54:36;;;;;;;11.75;4.00;;;;;;;;;;5022472;28;20216;-87
2021/07/19 13:57:41;;;;;;;6.80;4.05;;;;;;;;;;5022005;28;20223;-87
2021/07/19 14:00:46;;;;;;;7.70;2.90;;;;;;;;;;5010862;28;20192;-89
2021/07/19 14:03:49;;;;;;;8.07;3.00;;;;;;;;;;5022177;28;20172;-88
2021/07/19 14:06:55;;;;;;;5.85;2.58;;;;;;;;;;5007843;28;20552;-88
2021/07/19 14:09:59;;;;;;;5.00;2.90;;;;;;;;;;4991046;28;20177;-88
2021/07/19 14:13:04;;;;;;;6.45;3.00;;;;;;;;;;5013791;28;20189;-88
2021/07/19 14:16:08;;;;;;;6.18;3.10;;;;;;;;;;5013597;28;20228;-88
2021/07/19 14:19:12;;;;;;;4.28;3.10;;;;;;;;;;4991134;28;20181;-88
2021/07/19 14:22:16;;;;;;;8.05;3.53;;;;;;;;;;5002149;28;20184;-88
2021/07/19 14:25:20;;;;;;;103.65;9.15;;;;;;;;;;5002147;28;20180;-87
2021/07/19 14:28:24;;;;;;;28.23;4.43;;;;;;;;;;5001986;28;20213;-87
2021/07/19 14:31:29;;;;;;;8.88;4.03;;;;;;;;;;5002329;28;20190;-89
2021/07/19 14:34:34;;;;;;;7.18;3.40;;;;;;;;;;5002090;28;20211;-89
2021/07/19 14:37:39;;;;;;;8.88;3.72;;;;;;;;;;5001800;28;20702;-89
2021/07/19 14:40:44;;;;;;;8.50;3.38;;;;;;;;;;5002011;28;20177;-88
2021/07/19 14:43:48;;;;;;;8.35;3.78;;;;;;;;;;5004138;28;20207;-87
2021/07/19 14:46:52;;;;;;;8.85;3.22;;;;;;;;;;5017290;28;20217;-87
2021/07/19 14:49:57;;;;;;;8.48;3.35;;;;;;;;;;5005762;28;20173;-87
2021/07/19 14:53:01;;;;;;;16.67;3.67;;;;;;;;;;5005623;28;20182;-87
2021/07/19 14:56:06;;;;;;;8.05;3.33;;;;;;;;;;5016882;28;20700;-87
2021/07/19 14:59:10;;;;;;;12.35;3.35;;;;;;;;;;5005689;28;20637;-88
2021/07/19 15:02:14;;;;;;;12.52;3.22;;;;;;;;;;5005643;28;20181;-88
2021/07/19 15:05:20;;;;;;;4.95;2.83;;;;;;;;;;5005819;28;20181;-87
2021/07/19 15:08:24;;;;;;;6.53;2.90;;;;;;;;;;5005206;28;20539;-87
2021/07/19 15:11:28;;;;;;;10.50;3.60;;;;;;;;;;5005779;28;20178;-87
2021/07/19 15:14:32;;;;;;;38.90;5.28;;;;;;;;;;5005447;28;20210;-87
2021/07/19 15:17:36;;;;;;;8.00;2.70;;;;;;;;;;5005333;28;20221;-87
2021/07/19 15:20:41;;;;;;;4.72;2.60;;;;;;;;;;5005329;28;20181;-87
2021/07/19 15:23:45;;;;;;;6.03;2.60;;;;;;;;;;4994512;28;20186;-89
2021/07/19 15:26:49;;;;;;;7.25;2.80;;;;;;;;;;4993744;28;20579;-87
2021/07/19 15:29:53;;;;;;;6.43;2.80;;;;;;;;;;5004940;28;20182;-87
2021/07/19 15:32:57;;;;;;;6.22;2.63;;;;;;;;;;5005074;28;20190;-87
2021/07/19 15:36:01;;;;;;;6.55;2.67;;;;;;;;;;5004458;28;20225;-87
2021/07/19 15:39:05;;;;;;;5.82;2.90;;;;;;;;;;5004841;28;20204;-87
2021/07/19 15:42:09;;;;;;;5.78;2.47;;;;;;;;;;5004860;28;20190;-87
2021/07/19 15:45:15;;;;;;;7.22;2.53;;;;;;;;;;5016270;28;20174;-87
2021/07/19 15:48:19;;;;;;;9.75;3.20;;;;;;;;;;5004800;28;20186;-87
2021/07/19 15:51:23;;;;;;;5.45;3.17;;;;;;;;;;5015623;28;20193;-87
2021/07/19 15:54:27;;;;;;;5.68;2.83;;;;;;;;;;5004475;28;20229;-87
2021/07/19 15:57:31;;;;;;;4.40;2.80;;;;;;;;;;5004675;28;20682;-87
2021/07/19 16:00:35;;;;;;;5.63;2.97;;;;;;;;;;5015741;28;20190;-87
2021/07/19 16:03:39;;;;;;;5.80;2.63;;;;;;;;;;5004604;28;20190;-88
2021/07/19 16:06:44;;;;;;;6.50;2.92;;;;;;;;;;5003908;28;20215;-88
2021/07/19 16:09:47;;;;;;;4.43;2.58;;;;;;;;;;4993000;28;20205;-88
2021/07/19 16:12:51;;;;;;;5.55;2.88;;;;;;;;;;5004919;28;20183;-88
2021/07/19 16:15:56;;;;;;;9.93;3.13;;;;;;;;;;5004332;28;20233;-88
2021/07/19 16:19:00;;;;;;;8.52;2.90;;;;;;;;;;4993528;28;20189;-89
2021/07/19 16:22:05;;;;;;;5.05;2.83;;;;;;;;;;5004112;28;20516;-88
2021/07/19 16:25:09;;;;;;;9.48;3.63;;;;;;;;;;5004401;28;20192;-88
2021/07/19 16:28:14;;;;;;;4.70;3.20;;;;;;;;;;5015631;28;20188;-88
2021/07/19 16:31:18;;;;;;;8.32;3.00;;;;;;;;;;4992810;28;20636;-89
2021/07/19 16:34:22;;;;;;;5.05;3.05;;;;;;;;;;5003864;28;20647;-88
2021/07/19 16:37:26;;;;;;;11.50;3.65;;;;;;;;;;5019726;23;20230;-84
2021/07/19 16:40:30;;;;;;;13.80;3.80;;;;;;;;;;4964967;28;20527;-84
2021/07/19 16:43:35;;;;;;;9.60;3.40;;;;;;;;;;4953966;28;20190;-84
2021/07/19 16:46:39;;;;;;;5.00;3.17;;;;;;;;;;4953792;28;20210;-84
2021/07/19 16:49:43;;;;;;;4.60;2.80;;;;;;;;;;4953806;28;20194;-84
2021/07/19 16:52:47;;;;;;;6.10;2.97;;;;;;;;;;4965309;28;20638;-84
2021/07/19 16:55:51;;;;;;;4.43;3.45;;;;;;;;;;4975790;28;20210;-84
2021/07/19 16:58:55;;;;;;;12.27;3.35;;;;;;;;;;4975742;28;20622;-84
2021/07/19 17:02:00;;;;;;;7.23;3.73;;;;;;;;;;4965736;28;20179;-84
2021/07/19 17:05:11;;;;;;;9.53;3.80;;;;;;;;;;4935520;28;20180;-84
2021/07/19 17:08:16;;;;;;;16.00;4.03;;;;;;;;;;4945474;29;20570;-84
2021/07/19 17:11:20;;;;;;;12.27;4.23;;;;;;;;;;4945498;29;20180;-84
2021/07/19 17:14:25;;;;;;;7.60;4.30;;;;;;;;;;4945895;29;20626;-84
2021/07/19 17:17:29;;;;;;;26.67;5.40;;;;;;;;;;4934304;29;20222;-84
2021/07/19 17:20:33;;;;;;;21.50;4.70;;;;;;;;;;4933996;29;20207;-84
2021/07/19 17:23:37;;;;;;;15.53;4.03;;;;;;;;;;4934282;29;20220;-84
2021/07/19 17:26:41;;;;;;;11.47;7.00;;;;;;;;;;4956268;28;20692;-84
2021/07/19 17:29:45;;;;;;;13.33;8.20;;;;;;;;;;4945281;29;20642;-83
2021/07/19 17:32:49;;;;;;;27.80;15.70;;;;;;;;;;4956512;29;20189;-84
2021/07/19 17:35:55;;;;;;;18.20;11.67;;;;;;;;;;4955998;29;20219;-84
2021/07/19 17:39:00;;;;;;;14.50;11.23;;;;;;;;;;4934270;29;20188;-83
2021/07/19 17:42:04;;;;;;;15.87;8.77;;;;;;;;;;4956235;29;20544;-84
2021/07/19 17:45:08;;;;;;;12.47;9.10;;;;;;;;;;4956744;28;20189;-83
2021/07/19 17:48:16;;;;;;;7.47;5.00;;;;;;;;;;4955299;28;20219;-83
2021/07/19 17:51:20;;;;;;;6.43;4.30;;;;;;;;;;4967057;28;20205;-83
2021/07/19 17:54:24;;;;;;;5.37;3.63;;;;;;;;;;4944896;29;20206;-83
2021/07/19 17:57:28;;;;;;;4.90;3.50;;;;;;;;;;4955471;28;20222;-83
2021/07/19 18:00:33;;;;;;;4.13;2.63;;;;;;;;;;4933976;29;20183;-83
2021/07/19 18:03:37;;;;;;;3.37;2.47;;;;;;;;;;4945979;29;20188;-83
2021/07/19 18:06:41;;;;;;;4.17;2.47;;;;;;;;;;4944396;28;20227;-83
2021/07/19 18:09:45;;;;;;;3.60;2.50;;;;;;;;;;4944713;29;20541;-83
2021/07/19 18:12:50;;;;;;;2.67;2.07;;;;;;;;;;4955373;29;20180;-83
2021/07/19 18:15:54;;;;;;;5.00;1.77;;;;;;;;;;4944257;29;20223;-83
2021/07/19 18:18:59;;;;;;;3.00;1.30;;;;;;;;;;4943422;29;20202;-83
2021/07/19 18:25:23;;;;;;;2.43;1.43;;;;;;;;;;4955557;29;20184;-83
2021/07/19 18:31:50;;;;;;;3.23;1.70;;;;;;;;;;4944262;29;20183;-83